createdAt,value
2018-05-06T00:02:02.033Z,13.90
2018-05-06T00:04:30.363Z,13.97
2018-05-06T00:06:57.902Z,14.33
2018-05-06T00:09:25.470Z,14.73
2018-05-06T00:11:53.008Z,13.10
2018-05-06T00:14:20.580Z,14.03
2018-05-06T00:16:48.125Z,13.63
2018-05-06T00:19:15.691Z,12.90
2018-05-06T00:21:43.231Z,13.73
2018-05-06T00:24:11.554Z,13.60
2018-05-06T00:26:39.099Z,12.97
2018-05-06T00:29:06.667Z,14.83
2018-05-06T00:31:34.210Z,13.03
2018-05-06T00:34:01.799Z,14.07
2018-05-06T00:36:29.343Z,13.90
2018-05-06T00:38:56.911Z,14.23
2018-05-06T00:41:24.445Z,14.60
2018-05-06T00:43:51.988Z,14.00
2018-05-06T00:46:20.410Z,13.83
2018-05-06T00:48:47.880Z,15.40
2018-05-06T00:51:15.444Z,14.63
2018-05-06T00:53:42.983Z,15.10
2018-05-06T00:56:10.549Z,14.40
2018-05-06T00:58:38.119Z,14.30
2018-05-06T01:01:05.681Z,15.10
2018-05-06T01:03:33.216Z,14.90
2018-05-06T01:06:00.781Z,13.80
2018-05-06T01:08:28.313Z,15.60
2018-05-06T01:10:55.878Z,15.17
2018-05-06T01:13:23.420Z,14.23
2018-05-06T01:15:51.751Z,13.97
2018-05-06T01:18:19.298Z,14.17
2018-05-06T01:20:46.863Z,14.73
2018-05-06T01:23:14.408Z,14.60
2018-05-06T01:25:41.974Z,14.53
2018-05-06T01:28:09.524Z,14.17
2018-05-06T01:30:37.083Z,14.53
2018-05-06T01:33:04.630Z,14.33
2018-05-06T01:35:32.960Z,15.10
2018-05-06T01:38:00.503Z,15.37
2018-05-06T01:40:28.066Z,13.80
2018-05-06T01:42:55.604Z,13.80
2018-05-06T01:45:23.162Z,15.13
2018-05-06T01:47:50.703Z,14.80
2018-05-06T01:50:19.031Z,14.93
2018-05-06T01:52:46.575Z,15.87
2018-05-06T01:55:14.147Z,14.53
2018-05-06T01:57:41.689Z,14.20
2018-05-06T02:00:09.254Z,14.73
2018-05-06T02:02:36.799Z,15.13
2018-05-06T02:05:04.370Z,14.57
2018-05-06T02:07:31.917Z,15.33
2018-05-06T02:09:59.498Z,14.90
2018-05-06T02:12:27.043Z,15.17
2018-05-06T02:14:54.600Z,13.97
2018-05-06T02:17:22.148Z,14.37
2018-05-06T02:19:50.478Z,14.97
2018-05-06T02:22:18.019Z,15.60
2018-05-06T02:24:45.578Z,15.60
2018-05-06T02:27:13.119Z,14.70
2018-05-06T02:29:40.678Z,14.47
2018-05-06T02:32:08.219Z,15.10
2018-05-06T02:34:36.549Z,15.13
2018-05-06T02:37:04.096Z,15.33
2018-05-06T02:39:31.756Z,15.77
2018-05-06T02:41:59.324Z,15.47
2018-05-06T02:44:26.857Z,15.23
2018-05-06T02:46:54.422Z,14.07
2018-05-06T02:49:21.963Z,14.50
2018-05-06T02:51:50.286Z,14.53
2018-05-06T02:54:17.827Z,15.10
2018-05-06T02:56:45.395Z,15.43
2018-05-06T02:59:12.930Z,15.17
2018-05-06T03:01:40.491Z,16.37
2018-05-06T03:04:08.039Z,16.03
2018-05-06T03:06:36.370Z,15.40
2018-05-06T03:09:03.910Z,14.47
2018-05-06T03:11:31.487Z,14.33
2018-05-06T03:13:59.022Z,15.17
2018-05-06T03:16:27.434Z,17.00
2018-05-06T03:18:54.978Z,15.70
2018-05-06T03:21:22.540Z,16.43
2018-05-06T03:23:50.079Z,15.83
2018-05-06T03:26:17.644Z,15.50
2018-05-06T03:28:45.179Z,16.50
2018-05-06T03:31:13.510Z,16.17
2018-05-06T03:33:41.051Z,15.13
2018-05-06T03:36:08.612Z,15.53
2018-05-06T03:38:36.156Z,15.53
2018-05-06T03:41:03.726Z,16.00
2018-05-06T03:43:31.270Z,15.73
2018-05-06T03:45:58.832Z,17.27
2018-05-06T03:48:26.375Z,15.40
2018-05-06T03:50:54.703Z,15.87
2018-05-06T03:53:22.246Z,16.53
2018-05-06T03:59:01.869Z,15.10
2018-05-06T04:01:30.195Z,15.67
2018-05-06T04:03:57.729Z,16.17
2018-05-06T04:06:25.296Z,14.90
2018-05-06T04:08:52.831Z,14.80
2018-05-06T04:11:21.158Z,16.17
2018-05-06T04:13:48.704Z,14.07
2018-05-06T04:16:16.273Z,13.40
2018-05-06T04:18:43.805Z,14.20
2018-05-06T04:21:11.388Z,14.07
2018-05-06T04:23:38.931Z,14.50
2018-05-06T04:26:06.499Z,13.50
2018-05-06T04:28:34.066Z,13.30
2018-05-06T04:31:01.633Z,12.90
2018-05-06T04:33:29.174Z,12.97
2018-05-06T04:35:56.718Z,12.40
2018-05-06T04:38:25.042Z,12.73
2018-05-06T04:40:52.602Z,11.90
2018-05-06T04:43:20.151Z,12.60
2018-05-06T04:45:47.718Z,12.77
2018-05-06T04:48:15.254Z,10.80
2018-05-06T04:50:42.814Z,11.10
2018-05-06T04:53:10.356Z,10.60
2018-05-06T04:55:38.654Z,10.77
2018-05-06T04:58:06.228Z,9.90
2018-05-06T05:00:34.556Z,10.63
2018-05-06T05:03:02.891Z,11.07
2018-05-06T05:05:30.422Z,11.57
2018-05-06T05:07:57.988Z,10.53
2018-05-06T05:10:25.532Z,10.47
2018-05-06T05:12:53.090Z,10.40
2018-05-06T05:15:21.393Z,10.63
2018-05-06T05:17:48.962Z,10.80
2018-05-06T05:20:16.495Z,9.90
2018-05-06T05:22:44.064Z,10.03
2018-05-06T05:25:11.608Z,10.13
2018-05-06T05:27:39.159Z,9.43
2018-05-06T05:30:07.476Z,9.90
2018-05-06T05:32:35.034Z,8.93
2018-05-06T05:35:02.575Z,9.17
2018-05-06T05:37:30.135Z,9.40
2018-05-06T05:39:57.682Z,8.70
2018-05-06T05:42:26.019Z,8.53
2018-05-06T05:44:54.352Z,7.57
2018-05-06T05:47:21.911Z,8.00
2018-05-06T05:49:49.448Z,7.57
2018-05-06T05:54:47.736Z,7.47
2018-05-06T05:57:16.067Z,8.63
2018-05-06T05:59:43.607Z,8.10
2018-05-06T06:02:11.167Z,7.80
2018-05-06T06:04:38.703Z,9.13
2018-05-06T06:07:07.035Z,8.20
2018-05-06T06:09:34.682Z,8.80
2018-05-06T06:12:02.260Z,9.13
2018-05-06T06:14:29.802Z,8.53
2018-05-06T06:16:57.366Z,8.50
2018-05-06T06:19:24.901Z,9.30
2018-05-06T06:21:52.460Z,9.40
2018-05-06T06:24:20.044Z,9.73
2018-05-06T06:26:47.624Z,9.40
2018-05-06T06:29:15.168Z,8.37
2018-05-06T06:31:42.728Z,8.33
2018-05-06T06:34:10.261Z,9.93
2018-05-06T06:36:37.826Z,9.43
2018-05-06T06:39:05.357Z,9.37
2018-05-06T06:41:33.781Z,8.97
2018-05-06T06:44:01.317Z,10.03
2018-05-06T06:46:28.851Z,9.57
2018-05-06T06:48:56.419Z,9.73
2018-05-06T06:51:24.764Z,8.20
2018-05-06T06:53:52.300Z,8.90
2018-05-06T06:56:19.838Z,9.50
2018-05-06T06:58:47.407Z,10.17
2018-05-06T07:01:14.944Z,8.87
2018-05-06T07:03:43.269Z,10.00
2018-05-06T07:06:10.815Z,9.53
2018-05-06T07:08:38.374Z,8.37
2018-05-06T07:11:05.918Z,9.50
2018-05-06T07:13:33.483Z,9.30
2018-05-06T07:16:01.020Z,8.37
2018-05-06T07:18:29.346Z,8.20
2018-05-06T07:20:56.889Z,7.87
2018-05-06T07:23:25.210Z,7.87
2018-05-06T07:25:52.742Z,9.30
2018-05-06T07:28:20.309Z,8.23
2018-05-06T07:30:47.870Z,8.63
2018-05-06T07:33:15.426Z,8.07
2018-05-06T07:35:43.022Z,7.20
2018-05-06T07:38:10.554Z,7.97
2018-05-06T07:40:38.089Z,8.77
2018-05-06T07:43:05.647Z,8.13
2018-05-06T07:45:33.197Z,7.17
2018-05-06T07:48:00.755Z,6.60
2018-05-06T07:50:28.300Z,6.10
2018-05-06T07:52:56.627Z,6.37
2018-05-06T07:55:24.166Z,5.70
2018-05-06T07:57:51.727Z,6.00
2018-05-06T08:00:19.264Z,5.73
2018-05-06T08:02:46.818Z,6.87
2018-05-06T08:05:15.116Z,6.30
2018-05-06T08:07:42.676Z,6.53
2018-05-06T08:10:10.219Z,6.80
2018-05-06T08:12:38.541Z,5.70
2018-05-06T08:15:06.074Z,5.77
2018-05-06T08:17:33.637Z,5.97
2018-05-06T08:20:01.215Z,6.03
2018-05-06T08:22:28.758Z,6.53
2018-05-06T08:24:56.289Z,7.20
2018-05-06T08:27:24.615Z,6.03
2018-05-06T08:29:52.149Z,6.27
2018-05-06T08:32:19.706Z,6.63
2018-05-06T08:34:47.258Z,5.90
2018-05-06T08:37:14.836Z,7.50
2018-05-06T08:39:42.371Z,6.97
2018-05-06T08:42:10.698Z,6.60
2018-05-06T08:44:38.226Z,6.03
2018-05-06T08:47:05.776Z,5.93
2018-05-06T08:49:33.312Z,6.30
2018-05-06T08:52:01.639Z,6.60
2018-05-06T08:54:29.182Z,7.60
2018-05-06T08:56:56.726Z,7.80
2018-05-06T08:59:25.053Z,6.67
2018-05-06T09:01:52.583Z,6.13
2018-05-06T09:04:20.155Z,6.77
2018-05-06T09:06:47.714Z,6.10
2018-05-06T09:09:15.279Z,6.50
2018-05-06T09:11:42.815Z,4.73
2018-05-06T09:14:10.370Z,5.27
2018-05-06T09:16:37.904Z,4.70
2018-05-06T09:19:05.462Z,6.00
2018-05-06T09:21:32.996Z,5.17
2018-05-06T09:24:00.551Z,5.30
2018-05-06T09:26:28.088Z,5.37
2018-05-06T09:28:55.648Z,3.77
2018-05-06T09:31:23.175Z,5.10
2018-05-06T09:33:51.504Z,4.87
2018-05-06T09:36:19.045Z,5.43
2018-05-06T09:38:46.612Z,4.50
2018-05-06T09:41:14.157Z,5.27
2018-05-06T09:43:41.718Z,4.00
2018-05-06T09:46:09.257Z,4.93
2018-05-06T09:48:37.598Z,4.60
2018-05-06T09:51:05.128Z,4.63
2018-05-06T09:53:32.666Z,4.10
2018-05-06T09:56:00.226Z,4.90
2018-05-06T09:58:27.761Z,4.50
2018-05-06T10:00:56.087Z,3.80
2018-05-06T10:03:23.626Z,4.63
2018-05-06T10:05:51.182Z,3.90
2018-05-06T10:08:18.812Z,4.80
2018-05-06T10:10:46.303Z,3.60
2018-05-06T10:13:13.845Z,4.60
2018-05-06T10:15:42.445Z,4.03
2018-05-06T10:18:10.719Z,3.80
2018-05-06T10:20:39.041Z,4.10
2018-05-06T10:23:06.579Z,4.03
2018-05-06T10:25:34.184Z,3.63
2018-05-06T10:28:01.754Z,4.43
2018-05-06T10:30:29.318Z,3.93
2018-05-06T10:32:56.847Z,4.10
2018-05-06T10:35:24.403Z,3.67
2018-05-06T10:37:51.941Z,3.40
2018-05-06T10:40:19.497Z,4.30
2018-05-06T10:42:47.031Z,3.77
2018-05-06T10:45:15.375Z,3.60
2018-05-06T10:47:43.009Z,3.43
2018-05-06T10:50:11.715Z,3.30
2018-05-06T10:52:40.086Z,3.67
2018-05-06T10:55:07.735Z,4.33
2018-05-06T10:57:35.361Z,3.80
2018-05-06T11:00:02.842Z,3.20
2018-05-06T11:02:30.414Z,3.40
2018-05-06T11:04:57.966Z,3.10
2018-05-06T11:07:25.539Z,3.00
2018-05-06T11:09:53.301Z,3.10
2018-05-06T11:12:20.896Z,3.30
2018-05-06T11:14:48.440Z,3.70
2018-05-06T11:17:15.998Z,3.47
2018-05-06T11:19:43.536Z,3.00
2018-05-06T11:22:11.096Z,2.67
2018-05-06T11:24:38.634Z,3.63
2018-05-06T11:27:06.951Z,2.90
2018-05-06T11:29:34.492Z,3.20
2018-05-06T11:32:02.044Z,2.50
2018-05-06T11:34:29.584Z,3.00
2018-05-06T11:36:57.911Z,2.93
2018-05-06T11:39:25.444Z,4.50
2018-05-06T11:41:53.003Z,3.47
2018-05-06T11:44:20.535Z,2.73
2018-05-06T11:46:48.960Z,2.80
2018-05-06T11:49:16.501Z,3.13
2018-05-06T11:51:44.063Z,3.20
2018-05-06T11:54:11.605Z,3.00
2018-05-06T11:56:39.935Z,3.50
2018-05-06T11:59:07.478Z,2.97
2018-05-06T12:01:35.037Z,2.30
2018-05-06T12:04:02.621Z,2.90
2018-05-06T12:06:30.175Z,2.63
2018-05-06T12:08:57.714Z,3.77
2018-05-06T12:11:25.275Z,3.10
2018-05-06T12:13:52.805Z,2.87
2018-05-06T12:16:21.135Z,3.30
2018-05-06T12:18:48.686Z,3.37
2018-05-06T12:21:16.246Z,3.30
2018-05-06T12:23:43.775Z,2.90
2018-05-06T12:26:11.335Z,3.67
2018-05-06T12:28:38.876Z,3.07
2018-05-06T12:31:07.180Z,3.40
2018-05-06T12:33:34.756Z,3.20
2018-05-06T12:36:02.315Z,2.70
2018-05-06T12:38:29.973Z,3.10
2018-05-06T12:40:57.540Z,3.80
2018-05-06T12:43:25.189Z,3.00
2018-05-06T12:45:52.645Z,2.97
2018-05-06T12:48:20.208Z,3.10
2018-05-06T12:50:47.748Z,2.40
2018-05-06T12:53:15.310Z,2.50
2018-05-06T12:55:42.851Z,2.70
2018-05-06T12:58:11.179Z,3.17
2018-05-06T13:00:38.713Z,2.93
2018-05-06T13:03:06.274Z,2.93
2018-05-06T13:05:33.812Z,3.03
2018-05-06T13:08:02.138Z,3.30
2018-05-06T13:10:29.675Z,2.90
2018-05-06T13:12:57.227Z,2.60
2018-05-06T13:15:24.762Z,3.00
2018-05-06T13:17:53.087Z,2.93
2018-05-06T13:20:20.622Z,2.97
2018-05-06T13:22:48.956Z,2.80
2018-05-06T13:25:16.495Z,2.93
2018-05-06T13:27:44.069Z,3.30
2018-05-06T13:30:11.612Z,2.60
2018-05-06T13:32:39.170Z,3.17
2018-05-06T13:35:06.702Z,2.90
2018-05-06T13:37:34.255Z,2.53
2018-05-06T13:40:02.564Z,2.40
2018-05-06T13:42:30.123Z,3.07
2018-05-06T13:44:57.655Z,2.47
2018-05-06T13:47:25.975Z,2.23
2018-05-06T13:49:53.721Z,2.67
2018-05-06T13:52:21.203Z,2.63
2018-05-06T13:54:48.734Z,2.30
2018-05-06T13:57:16.295Z,2.60
2018-05-06T13:59:43.825Z,2.27
2018-05-06T14:02:12.156Z,2.63
2018-05-06T14:04:39.692Z,2.70
2018-05-06T14:07:07.249Z,2.50
2018-05-06T14:09:34.781Z,2.00
2018-05-06T14:12:03.102Z,2.60
2018-05-06T14:14:30.658Z,2.70
2018-05-06T14:16:58.236Z,2.70
2018-05-06T14:19:25.761Z,2.80
2018-05-06T14:21:53.317Z,2.60
2018-05-06T14:24:20.853Z,2.13
2018-05-06T14:26:49.178Z,2.10
2018-05-06T14:29:16.716Z,2.30
2018-05-06T14:31:44.292Z,2.03
2018-05-06T14:34:11.826Z,2.30
2018-05-06T14:36:40.237Z,2.97
2018-05-06T14:39:07.775Z,2.17
2018-05-06T14:41:35.306Z,2.20
2018-05-06T14:44:02.911Z,1.97
2018-05-06T14:46:42.386Z,2.10
2018-05-06T14:49:09.931Z,2.00
2018-05-06T14:51:37.466Z,2.00
2018-05-06T14:54:05.019Z,2.23
2018-05-06T14:56:32.558Z,2.17
2018-05-06T14:59:00.877Z,2.47
2018-05-06T15:01:28.411Z,2.27
2018-05-06T15:03:56.733Z,2.43
2018-05-06T15:06:24.274Z,2.20
2018-05-06T15:08:51.937Z,2.30
2018-05-06T15:11:19.471Z,2.00
2018-05-06T15:13:47.054Z,2.93
2018-05-06T15:16:14.593Z,1.70
2018-05-06T15:18:42.146Z,2.00
2018-05-06T15:21:10.555Z,1.70
2018-05-06T15:23:38.113Z,1.60
2018-05-06T15:26:05.643Z,1.40
2018-05-06T15:28:33.966Z,2.47
2018-05-06T15:31:01.504Z,1.83
2018-05-06T15:33:29.062Z,1.90
2018-05-06T15:35:56.609Z,1.87
2018-05-06T15:38:24.192Z,1.40
2018-05-06T15:40:51.726Z,1.77
2018-05-06T15:43:20.046Z,1.60
2018-05-06T15:45:47.575Z,2.00
2018-05-06T15:48:15.125Z,1.80
2018-05-06T15:50:42.667Z,2.00
2018-05-06T15:53:11.090Z,4.00
2018-05-06T15:55:38.631Z,3.00
2018-05-06T15:58:06.193Z,2.40
2018-05-06T16:00:33.740Z,3.47
2018-05-06T16:03:13.986Z,1.90
2018-05-06T16:05:42.283Z,2.33
2018-05-06T16:08:09.866Z,1.97
2018-05-06T16:10:37.395Z,1.67
2018-05-06T16:13:05.691Z,2.17
2018-05-06T16:15:33.242Z,1.80
2018-05-06T16:18:00.771Z,2.00
2018-05-06T16:20:28.354Z,1.97
2018-05-06T16:22:56.663Z,2.27
2018-05-06T16:25:24.224Z,3.80
2018-05-06T16:27:51.759Z,2.20
2018-05-06T16:30:20.079Z,2.57
2018-05-06T16:32:48.388Z,2.27
2018-05-06T16:35:15.951Z,4.57
2018-05-06T16:37:44.253Z,2.53
2018-05-06T16:40:11.813Z,1.73
2018-05-06T16:42:39.349Z,1.40
2018-05-06T16:45:07.675Z,1.33
2018-05-06T16:47:35.210Z,2.37
2018-05-06T16:50:02.774Z,2.00
2018-05-06T16:52:30.322Z,1.43
2018-05-06T16:54:58.638Z,1.53
2018-05-06T16:57:26.240Z,1.47
2018-05-06T16:59:53.752Z,1.73
2018-05-06T17:02:21.279Z,1.40
2018-05-06T17:04:49.605Z,1.50
2018-05-06T17:07:17.139Z,1.47
2018-05-06T17:09:44.691Z,1.37
2018-05-06T17:12:12.226Z,1.70
2018-05-06T17:14:40.563Z,1.30
2018-05-06T17:17:08.094Z,1.40
2018-05-06T17:19:35.647Z,1.50
2018-05-06T17:22:03.267Z,1.40
2018-05-06T17:24:30.767Z,1.60
2018-05-06T17:26:58.429Z,1.63
2018-05-06T17:29:25.989Z,1.57
2018-05-06T17:31:53.527Z,1.73
2018-05-06T17:34:21.850Z,1.80
2018-05-06T17:36:49.386Z,1.87
2018-05-06T17:39:16.968Z,2.10
2018-05-06T17:41:44.503Z,1.43
2018-05-06T17:44:12.054Z,1.53
2018-05-06T17:46:40.356Z,1.50
2018-05-06T17:49:07.915Z,1.70
2018-05-06T17:51:35.455Z,1.70
2018-05-06T17:54:03.783Z,1.53
2018-05-06T17:56:31.318Z,1.60
2018-05-06T17:58:58.851Z,1.43
2018-05-06T18:01:27.173Z,1.47
2018-05-06T18:03:54.705Z,2.00
2018-05-06T18:06:22.262Z,1.40
2018-05-06T18:08:49.803Z,1.57
2018-05-06T18:11:18.119Z,1.20
2018-05-06T18:13:45.645Z,1.60
2018-05-06T18:16:13.974Z,1.90
2018-05-06T18:18:41.506Z,1.63
2018-05-06T18:21:09.063Z,1.70
2018-05-06T18:23:36.603Z,1.50
2018-05-06T18:26:04.926Z,1.60
2018-05-06T18:28:32.468Z,1.50
2018-05-06T18:31:00.029Z,1.63
2018-05-06T18:33:27.564Z,1.63
2018-05-06T18:35:55.885Z,1.77
2018-05-06T18:38:23.416Z,1.50
2018-05-06T18:40:50.985Z,1.47
2018-05-06T18:43:18.519Z,1.80
2018-05-06T18:45:46.850Z,1.80
2018-05-06T18:48:14.390Z,1.50
2018-05-06T18:50:41.944Z,1.97
2018-05-06T18:53:09.483Z,2.20
2018-05-06T18:55:37.802Z,3.60
2018-05-06T18:58:05.338Z,4.50
2018-05-06T19:00:32.898Z,6.60
2018-05-06T19:03:00.429Z,6.40
2018-05-06T19:05:28.734Z,6.50
2018-05-06T19:07:56.294Z,8.90
2018-05-06T19:10:23.864Z,12.30
2018-05-06T19:12:51.424Z,12.20
2018-05-06T19:15:18.967Z,12.17
2018-05-06T19:17:47.300Z,12.27
2018-05-06T19:20:14.842Z,8.43
2018-05-06T19:22:42.403Z,6.30
2018-05-06T19:25:09.947Z,5.10
2018-05-06T19:27:37.508Z,4.30
2018-05-06T19:30:05.051Z,3.60
2018-05-06T19:32:32.654Z,6.63
2018-05-06T19:35:00.187Z,3.47
2018-05-06T19:37:27.746Z,4.80
2018-05-06T19:39:55.307Z,5.10
2018-05-06T19:42:22.894Z,3.57
2018-05-06T19:44:50.528Z,3.93
2018-05-06T19:47:18.095Z,3.43
2018-05-06T19:49:45.672Z,2.83
2018-05-06T19:52:13.236Z,2.47
2018-05-06T19:54:40.771Z,2.77
2018-05-06T19:57:08.419Z,2.50
2018-05-06T19:59:35.989Z,2.20
2018-05-06T20:02:03.580Z,2.60
2018-05-06T20:04:31.163Z,2.20
2018-05-06T20:06:58.704Z,3.10
2018-05-06T20:09:26.262Z,2.60
2018-05-06T20:11:53.796Z,2.47
2018-05-06T20:14:21.371Z,4.00
2018-05-06T20:16:48.908Z,2.77
2018-05-06T20:19:16.475Z,3.80
2018-05-06T20:21:44.083Z,3.63
2018-05-06T20:24:11.607Z,4.60
2018-05-06T20:26:39.158Z,2.87
2018-05-06T20:29:06.823Z,3.13
2018-05-06T20:31:34.387Z,3.70
2018-05-06T20:34:01.959Z,4.80
2018-05-06T20:36:29.521Z,3.03
2018-05-06T20:38:57.093Z,3.60
2018-05-06T20:41:26.209Z,4.10
2018-05-06T20:43:53.867Z,4.10
2018-05-06T20:46:21.341Z,4.47
2018-05-06T20:48:48.910Z,4.90
2018-05-06T20:51:17.208Z,4.17
2018-05-06T20:53:44.799Z,4.20
2018-05-06T20:56:12.341Z,4.43
2018-05-06T20:58:39.895Z,4.43
2018-05-06T21:01:07.435Z,4.30
2018-05-06T21:03:35.012Z,3.53
2018-05-06T21:06:02.542Z,2.83
2018-05-06T21:08:30.843Z,2.33
2018-05-06T21:10:58.402Z,2.77
2018-05-06T21:13:25.959Z,2.53
2018-05-06T21:15:53.519Z,2.90
2018-05-06T21:18:21.061Z,1.93
2018-05-06T21:20:49.383Z,1.97
2018-05-06T21:23:16.914Z,1.80
2018-05-06T21:25:44.475Z,2.50
2018-05-06T21:28:12.014Z,2.50
2018-05-06T21:30:39.642Z,2.07
2018-05-06T21:33:07.187Z,2.10
2018-05-06T21:35:34.730Z,1.87
2018-05-06T21:38:02.263Z,2.10
2018-05-06T21:40:30.585Z,1.70
2018-05-06T21:42:58.116Z,1.77
2018-05-06T21:45:25.759Z,2.30
2018-05-06T21:47:53.234Z,2.00
2018-05-06T21:50:20.795Z,2.03
2018-05-06T21:52:48.328Z,1.80
2018-05-06T21:55:16.650Z,2.20
2018-05-06T21:57:44.223Z,1.67
2018-05-06T22:00:11.870Z,2.27
2018-05-06T22:02:39.407Z,1.97
2018-05-06T22:05:06.975Z,1.73
2018-05-06T22:07:34.529Z,2.03
2018-05-06T22:10:02.074Z,2.57
2018-05-06T22:12:30.398Z,2.50
2018-05-06T22:14:57.930Z,1.83
2018-05-06T22:17:25.491Z,2.00
2018-05-06T22:19:53.026Z,2.20
2018-05-06T22:22:21.351Z,2.17
2018-05-06T22:24:48.873Z,2.20
2018-05-06T22:27:17.195Z,2.20
2018-05-06T22:29:44.726Z,1.53
2018-05-06T22:32:12.286Z,1.83
2018-05-06T22:34:39.819Z,2.40
2018-05-06T22:37:08.139Z,2.23
2018-05-06T22:39:35.668Z,2.03
2018-05-06T22:42:03.994Z,2.20
2018-05-06T22:44:31.639Z,2.60
2018-05-06T22:46:59.193Z,2.00
2018-05-06T22:49:26.721Z,2.60
2018-05-06T22:51:55.046Z,2.33
2018-05-06T22:54:22.585Z,2.10
2018-05-06T22:56:50.150Z,2.43
2018-05-06T22:59:17.683Z,2.10
2018-05-06T23:01:46.005Z,2.13
2018-05-06T23:04:13.659Z,2.00
2018-05-06T23:06:41.325Z,1.80
2018-05-06T23:09:09.085Z,1.87
2018-05-06T23:11:36.671Z,2.30
2018-05-06T23:14:04.208Z,1.97
2018-05-06T23:16:31.868Z,2.10
2018-05-06T23:18:59.407Z,2.03
2018-05-06T23:21:26.999Z,2.00
2018-05-06T23:23:54.537Z,2.13
2018-05-06T23:26:22.092Z,2.13
2018-05-06T23:28:49.672Z,2.23
2018-05-06T23:31:17.998Z,2.30
2018-05-06T23:33:46.293Z,2.20
2018-05-06T23:36:14.619Z,2.30
2018-05-06T23:38:42.161Z,2.00
2018-05-06T23:41:09.720Z,2.30
2018-05-06T23:43:37.262Z,2.10
2018-05-06T23:46:04.813Z,1.93
2018-05-06T23:48:33.105Z,1.97
2018-05-06T23:51:00.663Z,2.10
2018-05-06T23:53:28.190Z,2.00
2018-05-06T23:55:55.748Z,2.10
2018-05-06T23:58:23.488Z,2.17
